Rickenbacker International Airport
KLCK : rendu visible

Aérodrome :











RETROUVEZ-NOUS SUR...

 
LOGIN :

S'inscrire | Disclaimer

   EN    FR    IT 

 









Légende :    VFR   VFR Marginal   IFR   IFR Intensif   IFR Très Intensif
Visi : 
Plafond : 
>= 8 km
>= 3000ft
5 à 8 km
1000 à 3000 ft
1500m à 5 km
500 à 1000 ft
800 à 1500m
200 à 500 ft
< 800m
< 200 ft
Symboles :   Orages  Brouillard  Fortes neiges  Fortes précipitations  Vent > 20 kt






- Altitude de l'aérodrome : 744 ft


KLCK - Rickenbacker International

DERNIER METAR :
  • 211555Z AUTO 17007KT 10SM OVC110 08/03 A3010 RMK AO2 T00780033

METARs EXPIRÉS :
  • 211535Z AUTO 17007KT 10SM BKN110 08/03 A3011 RMK AO2 T00770032
  • 211515Z AUTO 18009KT 10SM SCT120 08/03 A3011 RMK AO2 T00780031
  • 211450Z AUTO 18008KT 10SM CLR 07/03 A3011 RMK AO2 T00700030
  • 211435Z AUTO 15007KT 10SM CLR 07/03 A3010 RMK AO2 T00650028
  • 211415Z AUTO 15008KT 10SM CLR 06/03 A3011 RMK AO2 T00620026
  • 211355Z AUTO 17010G14KT 10SM CLR 06/03 A3014 RMK AO2 T00570025
  • 211335Z AUTO 17005KT 10SM CLR 05/03 A3014 RMK AO2 T00470026
  • 211315Z AUTO 15004KT 10SM CLR 04/02 A3014 RMK AO2 T00390023

TAF KLCK
Valide du 21 à 12h jusqu'au 22 à 12h UTC


211145Z 2112/2212 15006KT P6SM BKN200
FM211600 18012G22KT P6SM OVC100
FM211900 18014G22KT P6SM OVC080
FM212300 21016G24KT P6SM VCSH OVC040
FM220000 22016G24KT P6SM VCSH OVC025
FM220400 23014G22KT P6SM VCSH OVC015
FM220600 25012KT P6SM VCSH OVC012
FM221000 31012KT P6SM OVC012



MET'MAP, la Météo Aéronautique d'un coup d'oeil ! - Copyright ORBIFLY Décembre 2007 - Disclaimer

ORBIFLY MET'MAP TEAM :

Programmation & Développement : Alexandra Zaïnal
Conception & Développement : Baudouin d'Aumeries
Co-Programmation & Développement : Marc-Olivier Méhu
Soutien technique & logistique : Manuel Goepfert

Contact : metmap@orbifly.com




SOURCES & CREDITS :

   NOAA       Earth
Advisory